createdAt,value
2018-03-16T00:01:33.159Z,1.90
2018-03-16T00:03:59.413Z,1.90
2018-03-16T00:06:26.385Z,1.90
2018-03-16T00:08:52.646Z,1.90
2018-03-16T00:11:18.878Z,1.90
2018-03-16T00:13:45.105Z,1.90
2018-03-16T00:16:11.362Z,1.90
2018-03-16T00:18:37.591Z,1.90
2018-03-16T00:21:03.847Z,1.90
2018-03-16T00:23:30.122Z,1.90
2018-03-16T00:25:56.478Z,1.90
2018-03-16T00:28:22.713Z,1.90
2018-03-16T00:30:49.031Z,1.90
2018-03-16T00:33:15.264Z,1.90
2018-03-16T00:35:41.518Z,1.90
2018-03-16T00:38:08.485Z,1.90
2018-03-16T00:40:34.766Z,1.90
2018-03-16T00:43:01.015Z,1.90
2018-03-16T00:45:27.245Z,1.90
2018-03-16T00:47:53.499Z,2.00
2018-03-16T00:50:20.474Z,1.90
2018-03-16T00:52:46.811Z,1.90
2018-03-16T00:55:13.111Z,2.00
2018-03-16T00:57:39.371Z,2.00
2018-03-16T01:00:05.655Z,2.00
2018-03-16T01:02:32.645Z,2.00
2018-03-16T01:04:58.877Z,2.00
2018-03-16T01:07:25.590Z,2.10
2018-03-16T01:09:51.829Z,2.00
2018-03-16T01:12:18.058Z,2.00
2018-03-16T01:14:44.320Z,2.00
2018-03-16T01:17:10.548Z,2.00
2018-03-16T01:19:36.810Z,2.00
2018-03-16T01:22:03.842Z,2.00
2018-03-16T01:24:30.158Z,2.00
2018-03-16T01:26:56.384Z,2.10
2018-03-16T01:29:22.632Z,2.10
2018-03-16T01:31:48.866Z,2.10
2018-03-16T01:34:15.126Z,2.10
2018-03-16T01:36:42.098Z,2.10
2018-03-16T01:39:08.362Z,2.10
2018-03-16T01:41:34.595Z,2.10
2018-03-16T01:44:00.830Z,2.10
2018-03-16T01:46:27.094Z,2.10
2018-03-16T01:48:54.134Z,2.10
2018-03-16T01:51:21.190Z,2.10
2018-03-16T01:53:48.186Z,2.10
2018-03-16T01:56:14.532Z,2.10
2018-03-16T01:58:40.769Z,2.10
2018-03-16T02:01:07.043Z,2.10
2018-03-16T02:03:33.282Z,2.10
2018-03-16T02:05:59.562Z,2.10
2018-03-16T02:08:25.822Z,2.10
2018-03-16T02:10:52.098Z,2.10
2018-03-16T02:13:18.442Z,2.10
2018-03-16T02:15:45.388Z,2.10
2018-03-16T02:18:12.408Z,2.20
2018-03-16T02:20:38.674Z,2.10
2018-03-16T02:23:05.218Z,2.10
2018-03-16T02:25:32.247Z,2.20
2018-03-16T02:27:58.479Z,2.20
2018-03-16T02:30:24.747Z,2.20
2018-03-16T02:32:50.998Z,2.20
2018-03-16T02:35:17.258Z,2.20
2018-03-16T02:37:43.490Z,2.20
2018-03-16T02:40:09.736Z,2.20
2018-03-16T02:42:36.567Z,2.10
2018-03-16T02:45:02.855Z,2.20
2018-03-16T02:47:29.162Z,2.10
2018-03-16T02:49:56.139Z,2.20
2018-03-16T02:52:22.435Z,2.10
2018-03-16T02:54:49.436Z,2.20
2018-03-16T02:57:15.698Z,2.20
2018-03-16T02:59:42.688Z,2.10
2018-03-16T03:02:08.949Z,2.10
2018-03-16T03:04:35.251Z,2.20
2018-03-16T03:07:01.523Z,2.10
2018-03-16T03:09:27.822Z,2.10
2018-03-16T03:11:54.090Z,2.10
2018-03-16T03:14:20.328Z,2.10
2018-03-16T03:16:46.586Z,2.10
2018-03-16T03:19:12.821Z,2.10
2018-03-16T03:21:39.082Z,2.10
2018-03-16T03:24:05.325Z,2.10
2018-03-16T03:26:31.597Z,2.10
2018-03-16T03:28:58.597Z,2.00
2018-03-16T03:31:24.855Z,2.00
2018-03-16T03:33:51.091Z,2.00
2018-03-16T03:36:18.098Z,2.00
2018-03-16T03:38:44.340Z,2.00
2018-03-16T03:41:10.610Z,2.00
2018-03-16T03:43:37.582Z,2.00
2018-03-16T03:46:04.074Z,2.00
2018-03-16T03:48:30.306Z,2.00
2018-03-16T03:50:56.534Z,1.90
2018-03-16T03:53:22.799Z,1.90
2018-03-16T03:55:49.036Z,2.00
2018-03-16T03:58:15.293Z,1.90
2018-03-16T04:00:41.522Z,1.90
2018-03-16T04:03:07.781Z,1.90
2018-03-16T04:05:34.023Z,2.00
2018-03-16T04:08:01.030Z,1.90
2018-03-16T04:10:27.263Z,1.90
2018-03-16T04:12:53.531Z,1.90
2018-03-16T04:15:20.530Z,1.90
2018-03-16T04:17:46.794Z,1.90
2018-03-16T04:20:13.110Z,1.90
2018-03-16T04:22:39.370Z,1.80
2018-03-16T04:25:06.358Z,1.80
2018-03-16T04:27:32.649Z,1.80
2018-03-16T04:29:59.623Z,1.80
2018-03-16T04:32:25.886Z,1.80
2018-03-16T04:34:52.120Z,1.90
2018-03-16T04:37:18.378Z,1.90
2018-03-16T04:39:45.358Z,1.90
2018-03-16T04:42:11.618Z,1.80
2018-03-16T04:44:37.850Z,1.90
2018-03-16T04:47:04.115Z,1.90
2018-03-16T04:49:31.090Z,1.80
2018-03-16T04:52:04.258Z,1.80
2018-03-16T04:54:31.226Z,1.60
2018-03-16T04:56:57.485Z,1.60
2018-03-16T04:59:23.714Z,1.60
2018-03-16T05:01:49.966Z,1.50
2018-03-16T05:04:16.257Z,1.50
2018-03-16T05:06:42.810Z,1.40
2018-03-16T05:09:09.110Z,1.40
2018-03-16T05:11:35.366Z,1.40
2018-03-16T05:14:01.594Z,1.40
2018-03-16T05:16:27.850Z,1.30
2018-03-16T05:18:54.095Z,1.30
2018-03-16T05:21:21.094Z,1.40
2018-03-16T05:23:47.354Z,1.30
2018-03-16T05:26:13.579Z,1.30
2018-03-16T05:28:39.870Z,1.30
2018-03-16T05:31:06.130Z,1.20
2018-03-16T05:33:32.391Z,1.20
2018-03-16T05:35:58.630Z,1.20
2018-03-16T05:38:25.634Z,1.20
2018-03-16T05:40:51.862Z,1.20
2018-03-16T05:43:18.188Z,1.20
2018-03-16T05:45:44.506Z,1.20
2018-03-16T05:48:10.766Z,1.20
2018-03-16T05:50:36.993Z,1.20
2018-03-16T05:53:03.255Z,1.20
2018-03-16T05:55:30.243Z,1.20
2018-03-16T05:57:56.508Z,1.20
2018-03-16T06:00:22.746Z,1.20
2018-03-16T06:02:49.011Z,1.20
2018-03-16T06:05:15.978Z,1.10
2018-03-16T06:07:42.239Z,1.20
2018-03-16T06:10:08.475Z,1.20
2018-03-16T06:12:34.742Z,1.10
2018-03-16T06:15:01.712Z,1.10
2018-03-16T06:17:27.980Z,1.10
2018-03-16T06:19:54.218Z,1.10
2018-03-16T06:22:20.550Z,1.10
2018-03-16T06:24:46.783Z,1.10
2018-03-16T06:27:13.047Z,1.10
2018-03-16T06:29:39.339Z,1.10
2018-03-16T06:32:05.631Z,1.10
2018-03-16T06:34:31.891Z,1.00
2018-03-16T06:36:58.127Z,1.00
2018-03-16T06:39:24.406Z,1.00
2018-03-16T06:41:50.667Z,1.00
2018-03-16T06:44:16.930Z,1.00
2018-03-16T06:46:43.162Z,1.00
2018-03-16T06:49:10.179Z,0.90
2018-03-16T06:51:36.410Z,0.90
2018-03-16T06:54:02.678Z,1.00
2018-03-16T06:56:28.926Z,1.00
2018-03-16T06:58:55.183Z,0.90
2018-03-16T07:01:21.418Z,0.90
2018-03-16T07:03:47.691Z,0.90
2018-03-16T07:06:14.662Z,1.00
2018-03-16T07:08:40.944Z,1.00
2018-03-16T07:11:07.195Z,1.00
2018-03-16T07:13:34.202Z,1.00
2018-03-16T07:16:00.431Z,0.90
2018-03-16T07:18:26.693Z,0.90
2018-03-16T07:20:52.917Z,0.90
2018-03-16T07:23:19.243Z,0.90
2018-03-16T07:25:45.477Z,0.90
2018-03-16T07:28:11.766Z,0.90
2018-03-16T07:30:37.994Z,0.90
2018-03-16T07:33:04.271Z,0.90
2018-03-16T07:35:30.502Z,0.90
2018-03-16T07:37:57.371Z,0.90
2018-03-16T07:40:24.351Z,0.80
2018-03-16T07:42:50.637Z,0.80
2018-03-16T07:45:17.655Z,0.80
2018-03-16T07:47:43.919Z,0.80
2018-03-16T07:50:10.910Z,0.70
2018-03-16T07:52:37.165Z,0.70
2018-03-16T07:55:03.427Z,0.80
2018-03-16T07:57:30.426Z,0.70
2018-03-16T07:59:56.673Z,0.70
2018-03-16T08:02:22.942Z,0.70
2018-03-16T08:04:49.915Z,0.60
2018-03-16T08:07:16.467Z,0.60
2018-03-16T08:09:42.693Z,0.60
2018-03-16T08:12:09.084Z,0.60
2018-03-16T08:14:36.054Z,0.60
2018-03-16T08:17:03.038Z,0.50
2018-03-16T08:19:29.297Z,0.60
2018-03-16T08:21:56.317Z,0.60
2018-03-16T08:24:22.933Z,0.60
2018-03-16T08:26:49.230Z,0.60
2018-03-16T08:29:15.522Z,0.60
2018-03-16T08:31:41.754Z,0.70
2018-03-16T08:34:08.368Z,0.60
2018-03-16T08:36:34.598Z,0.60
2018-03-16T08:39:01.446Z,0.60
2018-03-16T08:41:27.689Z,0.50
2018-03-16T08:43:53.975Z,0.50
2018-03-16T08:46:20.210Z,0.50
2018-03-16T08:48:46.471Z,0.50
2018-03-16T08:51:12.742Z,0.50
2018-03-16T08:53:39.738Z,0.60
2018-03-16T08:56:05.971Z,0.50
2018-03-16T08:58:32.222Z,0.60
2018-03-16T09:00:58.467Z,0.60
2018-03-16T09:03:25.486Z,0.60
2018-03-16T09:05:51.728Z,0.50
2018-03-16T09:08:17.970Z,0.50
2018-03-16T09:10:44.979Z,0.40
2018-03-16T09:13:11.257Z,0.40
2018-03-16T09:15:38.229Z,0.40
2018-03-16T09:18:04.455Z,0.40
2018-03-16T09:20:30.715Z,0.40
2018-03-16T09:22:56.944Z,0.40
2018-03-16T09:25:23.204Z,0.30
2018-03-16T09:27:49.438Z,0.40
2018-03-16T09:30:16.474Z,0.50
2018-03-16T09:32:42.737Z,0.50
2018-03-16T09:35:09.013Z,0.50
2018-03-16T09:37:35.267Z,0.40
2018-03-16T09:40:01.547Z,0.40
2018-03-16T09:42:27.786Z,0.30
2018-03-16T09:44:54.023Z,0.20
2018-03-16T09:47:20.275Z,0.20
2018-03-16T09:49:46.507Z,0.20
2018-03-16T09:52:12.776Z,0.30
2018-03-16T09:57:37.855Z,0.30
2018-03-16T10:00:04.110Z,0.30
2018-03-16T10:02:31.113Z,0.20
2018-03-16T10:04:57.385Z,0.20
2018-03-16T10:07:24.393Z,0.20
2018-03-16T10:09:50.657Z,0.20
2018-03-16T10:12:16.944Z,0.20
2018-03-16T10:14:43.203Z,0.10
2018-03-16T10:17:09.461Z,0.10
2018-03-16T10:19:36.430Z,-0.10
2018-03-16T10:22:02.948Z,-0.10
2018-03-16T10:24:29.918Z,0.20
2018-03-16T10:26:56.150Z,0.10
2018-03-16T10:29:22.446Z,0.20
2018-03-16T10:31:49.429Z,0.10
2018-03-16T10:34:15.700Z,0.10
2018-03-16T10:36:42.214Z,0.00
2018-03-16T10:39:08.474Z,0.00
2018-03-16T10:41:34.705Z,0.00
2018-03-16T10:44:00.978Z,-0.10
2018-03-16T10:46:27.206Z,0.00
2018-03-16T10:48:53.493Z,0.00
2018-03-16T10:51:19.726Z,0.00
2018-03-16T10:53:45.990Z,0.00
2018-03-16T10:56:12.235Z,0.00
2018-03-16T10:58:38.499Z,0.10
2018-03-16T11:01:10.986Z,0.00
2018-03-16T11:03:43.327Z,0.00
2018-03-16T11:06:09.610Z,0.00
2018-03-16T11:08:36.636Z,0.10
2018-03-16T11:11:02.939Z,0.10
2018-03-16T11:13:29.202Z,0.20
2018-03-16T11:15:55.442Z,0.20
2018-03-16T11:18:22.446Z,0.20
2018-03-16T11:20:48.677Z,0.20
2018-03-16T11:23:14.952Z,0.10
2018-03-16T11:25:41.926Z,0.10
2018-03-16T11:28:08.193Z,0.10
2018-03-16T11:30:34.458Z,0.20
2018-03-16T11:33:01.462Z,0.30
2018-03-16T11:35:27.758Z,0.30
2018-03-16T11:37:54.018Z,0.30
2018-03-16T11:40:20.318Z,0.30
2018-03-16T11:42:46.582Z,0.20
2018-03-16T11:45:12.816Z,0.10
2018-03-16T11:47:39.086Z,0.10
2018-03-16T11:50:06.053Z,-0.20
2018-03-16T11:52:32.282Z,-0.20
2018-03-16T11:54:59.282Z,-0.10
2018-03-16T11:57:25.515Z,-0.10
2018-03-16T11:59:51.778Z,0.00
2018-03-16T12:02:18.759Z,0.10
2018-03-16T12:04:45.022Z,0.10
2018-03-16T12:07:11.259Z,0.00
2018-03-16T12:09:37.521Z,0.10
2018-03-16T12:12:04.551Z,0.10
2018-03-16T12:14:31.562Z,0.10
2018-03-16T12:16:57.821Z,0.10
2018-03-16T12:19:24.112Z,0.00
2018-03-16T12:21:50.346Z,-0.10
2018-03-16T12:24:16.606Z,-0.10
2018-03-16T12:26:42.835Z,-0.20
2018-03-16T12:29:09.131Z,-0.10
2018-03-16T12:31:35.366Z,-0.20
2018-03-16T12:34:01.707Z,-0.20
2018-03-16T12:36:27.947Z,-0.20
2018-03-16T12:38:54.244Z,-0.20
2018-03-16T12:41:20.483Z,-0.20
2018-03-16T12:43:47.366Z,-0.10
2018-03-16T12:46:14.366Z,0.00
2018-03-16T12:48:40.932Z,0.00
2018-03-16T12:51:07.266Z,0.00
2018-03-16T12:53:33.966Z,0.00
2018-03-16T12:56:01.018Z,0.00
2018-03-16T12:58:27.315Z,0.00
2018-03-16T13:00:54.295Z,0.10
2018-03-16T13:03:20.664Z,0.10
2018-03-16T13:05:47.201Z,0.10
2018-03-16T13:08:13.632Z,0.10
2018-03-16T13:10:40.561Z,0.10
2018-03-16T13:13:06.860Z,0.10
2018-03-16T13:15:33.115Z,0.00
2018-03-16T13:17:59.471Z,-0.10
2018-03-16T13:20:25.760Z,-0.10
2018-03-16T13:22:52.003Z,-0.10
2018-03-16T13:25:18.275Z,-0.20
2018-03-16T13:27:44.504Z,-0.20
2018-03-16T13:30:12.361Z,-0.30
2018-03-16T13:32:38.679Z,-0.30
2018-03-16T13:35:05.110Z,-0.40
2018-03-16T13:37:31.348Z,-0.40
2018-03-16T13:39:57.698Z,-0.30
2018-03-16T13:42:24.710Z,-0.40
2018-03-16T13:44:51.035Z,-0.40
2018-03-16T13:47:17.539Z,-0.50
2018-03-16T13:49:44.757Z,-0.50
2018-03-16T13:52:11.002Z,-0.50
2018-03-16T13:54:37.313Z,-0.50
2018-03-16T13:57:03.614Z,-0.70
2018-03-16T13:59:30.171Z,-0.50
2018-03-16T14:01:56.921Z,-0.60
2018-03-16T14:04:23.870Z,-0.50
2018-03-16T14:06:58.395Z,-0.50
2018-03-16T14:09:26.058Z,-0.40
2018-03-16T14:11:53.009Z,-0.50
2018-03-16T14:14:19.755Z,-0.50
2018-03-16T14:16:47.239Z,-0.50
2018-03-16T14:19:14.387Z,-0.50
2018-03-16T14:21:41.839Z,-0.60
2018-03-16T14:24:08.217Z,-0.60
2018-03-16T14:26:34.478Z,-0.60
2018-03-16T14:29:00.795Z,-0.50
2018-03-16T14:31:27.055Z,-0.50
2018-03-16T14:33:54.063Z,-0.50
2018-03-16T14:36:20.314Z,-0.50
2018-03-16T14:38:46.570Z,-0.50
2018-03-16T14:41:13.584Z,-0.60
2018-03-16T14:43:39.878Z,-0.60
2018-03-16T14:46:06.894Z,-0.60
2018-03-16T14:48:33.886Z,-0.60
2018-03-16T14:51:00.178Z,-0.60
2018-03-16T14:53:26.454Z,-0.50
2018-03-16T14:55:52.986Z,-0.50
2018-03-16T14:58:19.248Z,-0.50
2018-03-16T15:00:45.482Z,-0.60
2018-03-16T15:03:12.515Z,-0.60
2018-03-16T15:05:38.750Z,-0.60
2018-03-16T15:08:05.004Z,-0.60
2018-03-16T15:10:31.978Z,-0.80
2018-03-16T15:12:58.226Z,-0.80
2018-03-16T15:15:24.458Z,-0.80
2018-03-16T15:17:50.729Z,-0.90
2018-03-16T15:20:16.959Z,-0.80
2018-03-16T15:22:43.944Z,-0.90
2018-03-16T15:25:10.171Z,-0.90
2018-03-16T15:27:36.412Z,-1.00
2018-03-16T15:30:02.672Z,-1.10
2018-03-16T15:32:28.918Z,-1.00
2018-03-16T15:34:55.144Z,-1.00
2018-03-16T15:37:21.332Z,-1.00
2018-03-16T15:39:47.592Z,-0.90
2018-03-16T15:42:13.784Z,-0.90
2018-03-16T15:44:40.004Z,-0.90
2018-03-16T15:47:06.204Z,-1.00
2018-03-16T15:49:33.164Z,-1.00
2018-03-16T15:52:00.676Z,-1.00
2018-03-16T15:54:28.544Z,-1.10
2018-03-16T15:56:54.813Z,-1.10
2018-03-16T15:59:21.772Z,-1.20
2018-03-16T16:01:47.966Z,-1.20
2018-03-16T16:04:14.255Z,-1.20
2018-03-16T16:06:41.128Z,-1.20
2018-03-16T16:09:09.202Z,-1.20
2018-03-16T16:11:36.959Z,-1.20
2018-03-16T16:14:04.113Z,-1.30
2018-03-16T16:16:32.083Z,-1.40
2018-03-16T16:19:00.052Z,-1.40
2018-03-16T16:21:28.055Z,-1.40
2018-03-16T16:23:54.971Z,-1.40
2018-03-16T16:26:22.017Z,-1.50
2018-03-16T16:28:49.888Z,-1.60
2018-03-16T16:31:17.448Z,-1.60
2018-03-16T16:33:45.261Z,-1.60
2018-03-16T16:36:11.745Z,-1.60
2018-03-16T16:38:39.004Z,-1.60
2018-03-16T16:41:06.868Z,-1.70
2018-03-16T16:43:34.224Z,-1.70
2018-03-16T16:46:01.381Z,-1.70
2018-03-16T16:48:28.322Z,-1.70
2018-03-16T16:50:56.095Z,-1.70
2018-03-16T16:53:22.896Z,-1.80
2018-03-16T16:55:50.899Z,-1.70
2018-03-16T16:58:18.764Z,-1.80
2018-03-16T17:00:45.782Z,-1.80
2018-03-16T17:03:11.978Z,-1.80
2018-03-16T17:05:39.268Z,-1.90
2018-03-16T17:08:05.497Z,-1.90
2018-03-16T17:10:31.717Z,-1.90
2018-03-16T17:12:57.909Z,-1.90
2018-03-16T17:15:25.369Z,-2.00
2018-03-16T17:17:52.299Z,-2.00
2018-03-16T17:20:18.524Z,-2.00
2018-03-16T17:22:44.720Z,-2.10
2018-03-16T17:25:10.960Z,-2.10
2018-03-16T17:27:37.180Z,-2.10
2018-03-16T17:30:03.467Z,-2.10
2018-03-16T17:32:30.483Z,-2.10
2018-03-16T17:34:56.680Z,-2.10
2018-03-16T17:37:22.892Z,-2.10
2018-03-16T17:39:49.094Z,-2.10
2018-03-16T17:42:16.056Z,-2.10
2018-03-16T17:44:42.255Z,-2.10
2018-03-16T17:47:08.540Z,-2.10
2018-03-16T17:49:34.734Z,-2.10
2018-03-16T17:52:01.760Z,-2.10
2018-03-16T17:54:28.709Z,-2.10
2018-03-16T17:56:54.928Z,-2.10
2018-03-16T17:59:21.156Z,-2.10
2018-03-16T18:01:47.375Z,-2.10
2018-03-16T18:04:13.566Z,-2.10
2018-03-16T18:06:39.792Z,-2.10
2018-03-16T18:09:05.990Z,-2.10
2018-03-16T18:11:32.924Z,-2.20
2018-03-16T18:13:59.161Z,-2.20
2018-03-16T18:16:26.100Z,-2.30
2018-03-16T18:18:52.329Z,-2.30
2018-03-16T18:21:19.284Z,-2.30
2018-03-16T18:23:45.527Z,-2.30
2018-03-16T18:26:11.828Z,-2.20
2018-03-16T18:28:38.053Z,-2.20
2018-03-16T18:31:04.241Z,-2.20
2018-03-16T18:33:30.461Z,-2.20
2018-03-16T18:35:56.696Z,-2.20
2018-03-16T18:38:22.920Z,-2.30
2018-03-16T18:40:49.116Z,-2.30
2018-03-16T18:43:16.472Z,-2.30
2018-03-16T18:45:42.677Z,-2.40
2018-03-16T18:48:08.904Z,-2.30
2018-03-16T18:50:35.111Z,-2.30
2018-03-16T18:53:01.357Z,-2.30
2018-03-16T18:55:27.573Z,-2.40
2018-03-16T18:57:53.804Z,-2.40
2018-03-16T19:00:20.009Z,-2.40
2018-03-16T19:02:46.246Z,-2.40
2018-03-16T19:05:12.457Z,-2.40
2018-03-16T19:07:38.705Z,-2.50
2018-03-16T19:10:04.968Z,-2.40
2018-03-16T19:12:31.532Z,-2.50
2018-03-16T19:14:57.752Z,-2.40
2018-03-16T19:17:23.976Z,-2.50
2018-03-16T19:19:50.185Z,-2.50
2018-03-16T19:22:16.412Z,-2.50
2018-03-16T19:24:43.097Z,-2.50
2018-03-16T19:27:10.136Z,-2.60
2018-03-16T19:29:37.104Z,-2.60
2018-03-16T19:32:03.337Z,-2.60
2018-03-16T19:34:29.528Z,-2.60
2018-03-16T19:36:55.776Z,-2.60
2018-03-16T19:39:22.705Z,-2.60
2018-03-16T19:41:48.924Z,-2.70
2018-03-16T19:44:15.864Z,-2.70
2018-03-16T19:46:42.093Z,-2.60
2018-03-16T19:49:08.288Z,-2.60
2018-03-16T19:51:34.506Z,-2.70
2018-03-16T19:54:00.704Z,-2.70
2018-03-16T19:56:27.677Z,-2.70
2018-03-16T19:58:54.237Z,-2.70
2018-03-16T20:01:20.481Z,-2.80
2018-03-16T20:03:46.682Z,-2.80
2018-03-16T20:06:12.964Z,-2.80
2018-03-16T20:08:39.164Z,-2.80
2018-03-16T20:11:05.397Z,-2.90
2018-03-16T20:13:31.591Z,-2.90
2018-03-16T20:15:57.804Z,-3.00
2018-03-16T20:18:24.740Z,-2.90
2018-03-16T20:20:51.692Z,-3.00
2018-03-16T20:23:17.904Z,-3.00
2018-03-16T20:25:44.149Z,-3.00
2018-03-16T20:28:18.169Z,-3.00
2018-03-16T20:30:44.424Z,-3.00
2018-03-16T20:33:10.621Z,-3.00
2018-03-16T20:35:37.580Z,-3.00
2018-03-16T20:38:03.773Z,-3.00
2018-03-16T20:40:29.996Z,-3.00
2018-03-16T20:42:56.202Z,-3.00
2018-03-16T20:45:22.448Z,-2.90
2018-03-16T20:47:48.641Z,-3.00
2018-03-16T20:50:14.874Z,-3.10
2018-03-16T20:52:41.083Z,-3.20
2018-03-16T20:55:07.272Z,-3.20
2018-03-16T20:57:33.522Z,-3.30
2018-03-16T21:00:00.513Z,-3.40
2018-03-16T21:02:27.073Z,-3.40
2018-03-16T21:04:53.579Z,-3.40
2018-03-16T21:07:19.804Z,-3.50
2018-03-16T21:09:45.996Z,-3.40
2018-03-16T21:12:12.958Z,-3.50
2018-03-16T21:14:39.215Z,-3.50
2018-03-16T21:17:05.432Z,-3.40
2018-03-16T21:19:31.633Z,-3.50
2018-03-16T21:21:58.601Z,-3.40
2018-03-16T21:24:24.800Z,-3.40
2018-03-16T21:26:51.769Z,-3.40
2018-03-16T21:29:18.001Z,-3.40
2018-03-16T21:31:44.229Z,-3.60
2018-03-16T21:34:10.426Z,-3.50
2018-03-16T21:36:36.644Z,-3.50
2018-03-16T21:39:04.360Z,-3.50
2018-03-16T21:41:30.593Z,-3.50
2018-03-16T21:43:56.790Z,-3.50
2018-03-16T21:46:23.745Z,-3.50
2018-03-16T21:48:50.929Z,-3.50
2018-03-16T21:51:17.156Z,-3.60
2018-03-16T21:53:43.357Z,-3.60
2018-03-16T21:56:09.593Z,-3.50
2018-03-16T21:58:35.797Z,-3.50
2018-03-16T22:01:02.773Z,-3.60
2018-03-16T22:03:28.965Z,-3.60
2018-03-16T22:05:55.190Z,-3.50
2018-03-16T22:08:21.688Z,-3.60
2018-03-16T22:10:48.040Z,-3.50
2018-03-16T22:13:14.274Z,-3.60
2018-03-16T22:15:40.471Z,-3.60
2018-03-16T22:18:06.699Z,-3.60
2018-03-16T22:20:32.888Z,-3.60
2018-03-16T22:22:59.839Z,-3.60
2018-03-16T22:25:26.772Z,-3.70
2018-03-16T22:27:52.995Z,-3.70
2018-03-16T22:30:19.292Z,-3.70
2018-03-16T22:32:45.520Z,-3.70
2018-03-16T22:35:11.721Z,-3.70
2018-03-16T22:37:37.948Z,-3.70
2018-03-16T22:40:04.148Z,-3.70
2018-03-16T22:42:30.372Z,-3.60
2018-03-16T22:44:56.569Z,-3.70
2018-03-16T22:47:22.804Z,-3.70
2018-03-16T22:49:49.029Z,-3.70
2018-03-16T22:52:15.324Z,-3.90
2018-03-16T22:54:41.549Z,-3.90
2018-03-16T22:57:08.763Z,-4.00
2018-03-16T22:59:34.952Z,-4.00
2018-03-16T23:02:01.168Z,-4.00
2018-03-16T23:04:27.361Z,-4.00
2018-03-16T23:06:54.342Z,-4.10
2018-03-16T23:09:20.540Z,-4.10
2018-03-16T23:11:47.511Z,-4.20
2018-03-16T23:14:13.704Z,-4.20
2018-03-16T23:16:39.933Z,-4.20
2018-03-16T23:19:06.896Z,-4.20
2018-03-16T23:21:33.858Z,-4.30
2018-03-16T23:24:00.054Z,-4.30
2018-03-16T23:26:26.281Z,-4.30
2018-03-16T23:28:52.472Z,-4.20
2018-03-16T23:31:18.719Z,-4.30
2018-03-16T23:33:44.916Z,-4.20
2018-03-16T23:36:11.132Z,-4.20
2018-03-16T23:38:37.320Z,-4.20
2018-03-16T23:41:05.029Z,-4.20
2018-03-16T23:43:31.238Z,-4.20
2018-03-16T23:45:58.240Z,-4.10
2018-03-16T23:48:24.460Z,-4.10
2018-03-16T23:50:50.673Z,-4.20
2018-03-16T23:53:16.901Z,-4.20
2018-03-16T23:55:43.137Z,-4.20
2018-03-16T23:58:09.360Z,-4.30
